Resolven, United Kingdom
Current Conditions -  °F | °C
As of 6:50 PM on Thursday 18 Dec 2014 (Local Time) from EGDX Reporting Station
Haze Haze  
Wind Chill: 52°   Ceiling: 300
Heat Index: 52°   Visibility: 5mi
Dew Point: 52°   Wind: 29mph
Humidity: 100%   Direction: 250°WSW
Pressure: 29.83"   Gusts: 40mph
Location:  51.71°N, 3.7°W
Report Text: EGDX 181850Z AUTO 25025G35KT 8000 BR OVC003/// 11/11 Q1010 RERA
Loading
Personal Weather Stations






























Interactive Weather Map New forecast layout! Learn more

10-Day Weather Forecast

Advertisements
Track Severe Weather on mobile